createdAt,value
2018-10-12T00:00:11.443Z,13.10
2018-10-12T00:01:46.951Z,12.30
2018-10-12T00:03:22.478Z,12.77
2018-10-12T00:04:57.979Z,12.43
2018-10-12T00:06:33.487Z,13.53
2018-10-12T00:08:09.034Z,12.77
2018-10-12T00:09:44.548Z,13.00
2018-10-12T00:11:20.091Z,12.90
2018-10-12T00:12:55.594Z,13.10
2018-10-12T00:14:31.101Z,12.27
2018-10-12T00:16:06.778Z,14.27
2018-10-12T00:17:42.312Z,13.37
2018-10-12T00:19:17.820Z,12.07
2018-10-12T00:20:53.307Z,11.60
2018-10-12T00:22:28.831Z,12.27
2018-10-12T00:24:04.368Z,11.60
2018-10-12T00:25:39.881Z,10.93
2018-10-12T00:27:15.373Z,12.53
2018-10-12T00:28:51.724Z,11.77
2018-10-12T00:30:27.260Z,12.63
2018-10-12T00:32:02.767Z,12.90
2018-10-12T00:33:38.299Z,12.47
2018-10-12T00:35:13.885Z,11.63
2018-10-12T00:36:49.478Z,11.87
2018-10-12T00:38:25.028Z,11.30
2018-10-12T00:40:00.500Z,12.13
2018-10-12T00:41:36.111Z,12.00
2018-10-12T00:43:11.654Z,11.87
2018-10-12T00:44:47.118Z,11.80
2018-10-12T00:46:22.604Z,12.87
2018-10-12T00:48:01.008Z,12.47
2018-10-12T00:49:36.564Z,13.83
2018-10-12T00:51:12.036Z,13.40
2018-10-12T00:52:47.573Z,13.27
2018-10-12T00:54:23.093Z,14.27
2018-10-12T00:55:58.598Z,13.00
2018-10-12T00:57:34.072Z,12.20
2018-10-12T00:59:09.624Z,13.07
2018-10-12T01:00:45.117Z,12.73
2018-10-12T01:02:20.569Z,13.07
2018-10-12T01:03:56.085Z,12.37
2018-10-12T01:05:31.579Z,12.83
2018-10-12T01:07:07.058Z,11.53
2018-10-12T01:08:42.558Z,12.57
2018-10-12T01:10:18.100Z,12.27
2018-10-12T01:12:03.589Z,12.13
2018-10-12T01:13:39.056Z,12.57
2018-10-12T01:15:14.582Z,13.50
2018-10-12T01:16:50.113Z,14.03
2018-10-12T01:18:25.652Z,12.57
2018-10-12T01:20:01.233Z,12.43
2018-10-12T01:21:36.800Z,12.43
2018-10-12T01:23:12.295Z,12.13
2018-10-12T01:24:47.812Z,13.70
2018-10-12T01:26:23.296Z,14.90
2018-10-12T01:27:58.876Z,13.57
2018-10-12T01:29:34.393Z,13.53
2018-10-12T01:31:09.885Z,13.23
2018-10-12T01:32:50.638Z,13.37
2018-10-12T01:34:26.194Z,13.20
2018-10-12T01:36:01.693Z,12.77
2018-10-12T01:37:37.210Z,12.73
2018-10-12T01:39:12.728Z,14.13
2018-10-12T01:40:48.297Z,12.83
2018-10-12T01:42:23.816Z,12.67
2018-10-12T01:43:59.331Z,13.00
2018-10-12T01:45:34.843Z,12.80
2018-10-12T01:47:10.398Z,12.57
2018-10-12T01:48:45.896Z,13.80
2018-10-12T01:50:21.426Z,14.37
2018-10-12T01:51:56.941Z,13.63
2018-10-12T01:53:32.464Z,14.93
2018-10-12T01:55:08.023Z,14.80
2018-10-12T01:56:43.571Z,14.47
2018-10-12T01:58:19.099Z,14.67
2018-10-12T01:59:54.664Z,14.90
2018-10-12T02:01:30.189Z,14.33
2018-10-12T02:03:05.708Z,14.33
2018-10-12T02:04:41.258Z,13.30
2018-10-12T02:06:16.884Z,14.60
2018-10-12T02:07:52.378Z,13.93
2018-10-12T02:09:27.928Z,12.77
2018-10-12T02:11:03.426Z,13.60
2018-10-12T02:12:38.948Z,12.10
2018-10-12T02:14:14.477Z,12.17
2018-10-12T02:15:50.013Z,11.90
2018-10-12T02:17:25.524Z,12.43
2018-10-12T02:19:01.056Z,11.97
2018-10-12T02:20:36.575Z,11.13
2018-10-12T02:22:12.099Z,11.73
2018-10-12T02:23:47.595Z,12.13
2018-10-12T02:25:23.131Z,11.93
2018-10-12T02:26:58.611Z,12.33
2018-10-12T02:28:34.079Z,11.93
2018-10-12T02:30:09.984Z,11.83
2018-10-12T02:31:45.498Z,12.83
2018-10-12T02:33:20.972Z,12.53
2018-10-12T02:34:56.523Z,11.97
2018-10-12T02:36:32.088Z,12.70
2018-10-12T02:38:07.579Z,12.30
2018-10-12T02:39:43.098Z,12.67
2018-10-12T02:41:18.597Z,11.60
2018-10-12T02:42:54.144Z,12.13
2018-10-12T02:44:29.699Z,11.70
2018-10-12T02:46:05.185Z,13.20
2018-10-12T02:47:40.709Z,12.33
2018-10-12T02:49:16.389Z,12.00
2018-10-12T02:50:51.880Z,12.07
2018-10-12T02:52:27.353Z,13.40
2018-10-12T02:54:02.856Z,12.20
2018-10-12T02:55:38.403Z,12.87
2018-10-12T02:57:13.879Z,12.43
2018-10-12T02:58:49.968Z,12.03
2018-10-12T03:00:25.476Z,12.00
2018-10-12T03:02:00.983Z,12.30
2018-10-12T03:03:36.475Z,12.70
2018-10-12T03:05:11.972Z,12.67
2018-10-12T03:06:47.438Z,12.33
2018-10-12T03:08:22.935Z,11.73
2018-10-12T03:09:58.458Z,12.50
2018-10-12T03:11:33.923Z,12.00
2018-10-12T03:13:09.400Z,13.57
2018-10-12T03:14:44.901Z,12.47
2018-10-12T03:16:20.380Z,11.77
2018-10-12T03:17:55.993Z,11.83
2018-10-12T03:19:31.568Z,11.27
2018-10-12T03:21:07.285Z,12.33
2018-10-12T03:22:42.769Z,11.80
2018-10-12T03:24:18.267Z,12.03
2018-10-12T03:25:53.788Z,13.07
2018-10-12T03:27:29.359Z,13.13
2018-10-12T03:29:04.846Z,13.23
2018-10-12T03:30:40.313Z,15.40
2018-10-12T03:32:15.817Z,14.60
2018-10-12T03:33:51.361Z,14.90
2018-10-12T03:35:26.865Z,14.37
2018-10-12T03:37:02.372Z,13.30
2018-10-12T03:38:37.850Z,13.23
2018-10-12T03:40:13.348Z,13.83
2018-10-12T03:41:49.005Z,14.13
2018-10-12T03:43:24.626Z,13.30
2018-10-12T03:45:00.105Z,12.83
2018-10-12T03:46:35.620Z,13.23
2018-10-12T03:48:11.204Z,12.23
2018-10-12T03:49:46.715Z,11.87
2018-10-12T03:51:22.247Z,12.23
2018-10-12T03:52:57.763Z,12.83
2018-10-12T03:54:33.255Z,13.90
2018-10-12T03:56:09.091Z,13.87
2018-10-12T03:57:44.591Z,13.57
2018-10-12T03:59:20.087Z,13.47
2018-10-12T04:00:55.587Z,12.70
2018-10-12T04:02:31.098Z,12.57
2018-10-12T04:04:06.613Z,12.33
2018-10-12T04:05:42.076Z,12.83
2018-10-12T04:07:17.549Z,12.97
2018-10-12T04:08:53.024Z,14.70
2018-10-12T04:10:28.605Z,15.07
2018-10-12T04:12:04.091Z,15.00
2018-10-12T04:13:39.611Z,14.63
2018-10-12T04:15:15.109Z,15.40
2018-10-12T04:16:50.706Z,14.27
2018-10-12T04:18:26.231Z,13.57
2018-10-12T04:20:01.748Z,12.40
2018-10-12T04:21:37.332Z,13.33
2018-10-12T04:23:12.800Z,13.43
2018-10-12T04:24:48.306Z,13.17
2018-10-12T04:26:23.832Z,12.67
2018-10-12T04:27:59.345Z,12.97
2018-10-12T04:29:34.823Z,11.70
2018-10-12T04:31:10.333Z,11.67
2018-10-12T04:32:45.814Z,11.93
2018-10-12T04:34:21.424Z,11.30
2018-10-12T04:35:56.965Z,11.53
2018-10-12T04:37:32.512Z,12.07
2018-10-12T04:39:19.451Z,12.70
2018-10-12T04:41:02.447Z,12.10
2018-10-12T04:42:38.099Z,12.57
2018-10-12T04:44:13.647Z,12.57
2018-10-12T04:45:49.184Z,11.20
2018-10-12T04:47:27.090Z,11.73
2018-10-12T04:49:03.534Z,11.83
2018-10-12T04:50:39.039Z,12.07
2018-10-12T04:52:15.185Z,12.30
2018-10-12T04:53:50.809Z,12.57
2018-10-12T04:55:26.269Z,12.10
2018-10-12T04:57:01.758Z,12.40
2018-10-12T04:58:37.313Z,12.73
2018-10-12T05:00:12.890Z,12.40
2018-10-12T05:01:48.501Z,13.97
2018-10-12T05:03:23.995Z,13.13
2018-10-12T05:04:59.472Z,12.03
2018-10-12T05:06:35.017Z,12.47
2018-10-12T05:08:10.475Z,13.03
2018-10-12T05:09:45.991Z,12.20
2018-10-12T05:11:21.499Z,11.70
2018-10-12T05:12:57.026Z,12.33
2018-10-12T05:14:32.522Z,11.30
2018-10-12T05:16:08.139Z,11.93
2018-10-12T05:17:43.599Z,10.93
2018-10-12T05:19:19.204Z,11.43
2018-10-12T05:20:54.731Z,11.40
2018-10-12T05:22:30.235Z,11.10
2018-10-12T05:24:05.754Z,11.50
2018-10-12T05:25:41.323Z,11.67
2018-10-12T05:27:16.900Z,10.83
2018-10-12T05:28:52.384Z,11.30
2018-10-12T05:30:27.899Z,10.70
2018-10-12T05:32:03.417Z,11.60
2018-10-12T05:33:38.900Z,11.67
2018-10-12T05:35:14.389Z,13.17
2018-10-12T05:36:49.919Z,11.50
2018-10-12T05:38:26.663Z,13.20
2018-10-12T05:40:02.164Z,12.33
2018-10-12T05:41:37.670Z,12.73
2018-10-12T05:43:14.675Z,12.10
2018-10-12T05:44:50.240Z,13.10
2018-10-12T05:46:25.716Z,13.57
2018-10-12T05:48:12.599Z,12.53
2018-10-12T05:49:59.762Z,11.37
2018-10-12T05:51:35.258Z,12.03
2018-10-12T05:53:10.805Z,12.67
2018-10-12T05:54:46.299Z,12.33
2018-10-12T05:56:30.799Z,12.17
2018-10-12T05:58:06.355Z,11.70
2018-10-12T05:59:41.840Z,11.17
2018-10-12T06:01:17.395Z,12.17
2018-10-12T06:02:52.908Z,11.53
2018-10-12T06:04:28.411Z,11.60
2018-10-12T06:06:04.017Z,12.30
2018-10-12T06:07:39.618Z,12.27
2018-10-12T06:09:15.087Z,12.50
2018-10-12T06:10:50.964Z,12.40
2018-10-12T06:12:26.484Z,12.23
2018-10-12T06:14:02.044Z,12.67
2018-10-12T06:15:37.614Z,13.10
2018-10-12T06:17:13.119Z,13.53
2018-10-12T06:18:48.720Z,12.80
2018-10-12T06:20:24.257Z,13.13
2018-10-12T06:21:59.760Z,13.20
2018-10-12T06:23:35.275Z,12.33
2018-10-12T06:25:10.762Z,13.53
2018-10-12T06:26:46.248Z,11.43
2018-10-12T06:28:21.764Z,11.50
2018-10-12T06:29:57.312Z,12.03
2018-10-12T06:31:32.778Z,11.10
2018-10-12T06:33:08.287Z,12.37
2018-10-12T06:34:43.945Z,11.90
2018-10-12T06:36:19.440Z,12.50
2018-10-12T06:37:55.079Z,13.00
2018-10-12T06:39:30.587Z,14.20
2018-10-12T06:41:06.159Z,13.53
2018-10-12T06:42:41.778Z,14.10
2018-10-12T06:44:17.303Z,13.23
2018-10-12T06:45:52.824Z,12.50
2018-10-12T06:47:28.368Z,11.87
2018-10-12T06:49:03.871Z,11.17
2018-10-12T06:50:40.179Z,12.87
2018-10-12T06:52:15.685Z,12.77
2018-10-12T06:53:51.311Z,12.93
2018-10-12T06:55:26.770Z,13.10
2018-10-12T06:57:02.306Z,12.83
2018-10-12T06:58:37.776Z,13.03
2018-10-12T07:00:13.374Z,13.00
2018-10-12T07:01:48.896Z,12.97
2018-10-12T07:03:24.378Z,12.43
2018-10-12T07:04:59.855Z,11.93
2018-10-12T07:06:35.398Z,12.43
2018-10-12T07:08:10.869Z,13.13
2018-10-12T07:09:46.444Z,12.00
2018-10-12T07:11:21.969Z,13.97
2018-10-12T07:12:57.539Z,14.53
2018-10-12T07:14:33.032Z,14.03
2018-10-12T07:16:09.101Z,13.83
2018-10-12T07:17:44.599Z,13.43
2018-10-12T07:19:20.158Z,12.93
2018-10-12T07:20:55.717Z,13.03
2018-10-12T07:22:31.172Z,12.73
2018-10-12T07:24:06.711Z,11.60
2018-10-12T07:25:42.299Z,12.60
2018-10-12T07:27:17.854Z,13.00
2018-10-12T07:28:53.402Z,12.60
2018-10-12T07:30:28.866Z,12.67
2018-10-12T07:32:04.434Z,12.83
2018-10-12T07:33:39.955Z,11.33
2018-10-12T07:35:15.437Z,12.60
2018-10-12T07:36:51.718Z,12.70
2018-10-12T07:38:28.357Z,11.77
2018-10-12T07:40:05.628Z,11.17
2018-10-12T07:41:43.737Z,12.47
2018-10-12T07:43:26.808Z,12.23
2018-10-12T07:45:03.999Z,12.43
2018-10-12T07:46:42.760Z,12.33
2018-10-12T07:48:23.142Z,14.10
2018-10-12T07:50:02.669Z,13.47
2018-10-12T07:51:39.415Z,12.60
2018-10-12T07:53:17.965Z,13.10
2018-10-12T07:54:54.953Z,12.40
2018-10-12T07:56:30.606Z,11.33
2018-10-12T07:58:06.780Z,12.53
2018-10-12T07:59:47.586Z,12.13
2018-10-12T08:01:23.727Z,11.90
2018-10-12T08:03:01.606Z,11.67
2018-10-12T08:04:38.964Z,11.93
2018-10-12T08:06:18.389Z,11.87
2018-10-12T08:07:56.054Z,11.17
2018-10-12T08:09:32.004Z,11.13
2018-10-12T08:11:11.361Z,15.23
2018-10-12T08:12:47.775Z,11.20
2018-10-12T08:14:26.015Z,11.03
2018-10-12T08:16:06.183Z,12.80
2018-10-12T08:17:42.879Z,10.47
2018-10-12T08:19:28.750Z,10.43
2018-10-12T08:21:05.455Z,11.30
2018-10-12T08:22:41.373Z,10.27
2018-10-12T08:24:18.285Z,10.80
2018-10-12T08:25:59.088Z,10.13
2018-10-12T08:27:42.297Z,9.43
2018-10-12T08:29:26.711Z,10.30
2018-10-12T08:31:02.921Z,10.57
2018-10-12T08:32:40.026Z,9.50
2018-10-12T08:34:17.041Z,8.83
2018-10-12T08:35:56.246Z,10.17
2018-10-12T08:37:32.091Z,9.83
2018-10-12T08:39:13.551Z,9.90
2018-10-12T08:40:57.039Z,9.33
2018-10-12T08:42:40.441Z,10.47
2018-10-12T08:44:18.179Z,8.57
2018-10-12T08:46:04.661Z,8.97
2018-10-12T08:47:43.956Z,9.33
2018-10-12T08:49:20.115Z,10.67
2018-10-12T08:50:57.555Z,8.77
2018-10-12T08:52:33.567Z,9.67
2018-10-12T08:54:13.697Z,8.20
2018-10-12T08:56:00.234Z,8.13
2018-10-12T08:57:38.248Z,11.10
2018-10-12T08:59:15.888Z,9.83
2018-10-12T09:00:54.919Z,8.87
2018-10-12T09:02:34.824Z,9.33
2018-10-12T09:04:12.669Z,8.50
2018-10-12T09:05:51.819Z,8.03
2018-10-12T09:07:27.717Z,7.63
2018-10-12T09:09:07.105Z,7.77
2018-10-12T09:10:43.242Z,7.63
2018-10-12T09:12:23.714Z,8.27
2018-10-12T09:14:00.458Z,7.53
2018-10-12T09:15:39.421Z,8.07
2018-10-12T09:17:17.553Z,8.37
2018-10-12T09:18:55.076Z,7.67
2018-10-12T09:20:37.381Z,7.97
2018-10-12T09:22:13.556Z,7.80
2018-10-12T09:23:51.180Z,8.07
2018-10-12T09:25:40.550Z,7.40
2018-10-12T09:27:18.286Z,8.80
2018-10-12T09:29:11.908Z,8.23
2018-10-12T09:30:52.229Z,7.97
2018-10-12T09:32:30.878Z,7.80
2018-10-12T09:34:17.036Z,8.40
2018-10-12T09:35:58.175Z,7.23
2018-10-12T09:37:36.812Z,7.47
2018-10-12T09:39:15.043Z,6.97
2018-10-12T09:40:55.980Z,7.37
2018-10-12T09:42:33.967Z,7.40
2018-10-12T09:44:10.569Z,8.83
2018-10-12T09:46:02.781Z,7.30
2018-10-12T09:47:40.999Z,8.33
2018-10-12T09:49:18.253Z,7.77
2018-10-12T09:50:57.269Z,6.97
2018-10-12T09:52:33.445Z,7.67
2018-10-12T09:55:57.341Z,7.17
2018-10-12T09:57:37.741Z,7.03
2018-10-12T09:59:25.196Z,7.20
2018-10-12T10:01:08.169Z,6.97
2018-10-12T10:04:52.240Z,7.13
2018-10-12T10:06:29.383Z,7.70
2018-10-12T10:08:19.084Z,7.33
2018-10-12T10:09:55.396Z,6.80
2018-10-12T10:11:40.143Z,7.10
2018-10-12T10:13:20.992Z,7.43
2018-10-12T10:15:04.103Z,7.50
2018-10-12T10:16:46.210Z,7.37
2018-10-12T10:18:23.545Z,6.87
2018-10-12T10:20:01.751Z,6.83
2018-10-12T10:21:44.710Z,8.57
2018-10-12T10:23:25.617Z,7.00
2018-10-12T10:25:02.587Z,6.73
2018-10-12T10:26:42.782Z,6.90
2018-10-12T10:28:19.989Z,6.03
2018-10-12T10:29:58.095Z,6.93
2018-10-12T10:31:35.100Z,6.30
2018-10-12T10:33:14.331Z,6.97
2018-10-12T10:34:54.201Z,7.17
2018-10-12T10:36:33.595Z,6.43
2018-10-12T10:38:11.775Z,6.20
2018-10-12T10:39:58.494Z,6.67
2018-10-12T10:41:36.920Z,6.83
2018-10-12T10:43:14.219Z,7.30
2018-10-12T10:44:51.448Z,6.70
2018-10-12T10:46:28.504Z,8.17
2018-10-12T10:48:07.306Z,6.27
2018-10-12T10:49:44.329Z,6.80
2018-10-12T10:51:24.041Z,6.37
2018-10-12T10:53:00.713Z,6.80
2018-10-12T10:54:40.532Z,6.80
2018-10-12T10:56:21.561Z,7.00
2018-10-12T10:57:57.352Z,6.70
2018-10-12T10:59:36.126Z,6.60
2018-10-12T11:01:17.604Z,6.27
2018-10-12T11:02:53.411Z,7.07
2018-10-12T11:04:33.603Z,6.07
2018-10-12T11:06:14.657Z,6.80
2018-10-12T11:07:51.629Z,7.50
2018-10-12T11:09:28.742Z,6.67
2018-10-12T11:11:05.412Z,6.00
2018-10-12T11:12:41.462Z,6.73
2018-10-12T11:14:24.022Z,6.10
2018-10-12T11:16:00.792Z,6.70
2018-10-12T11:17:41.141Z,6.53
2018-10-12T11:19:17.863Z,5.87
2018-10-12T11:20:53.606Z,6.77
2018-10-12T11:22:30.737Z,6.23
2018-10-12T11:24:09.549Z,6.57
2018-10-12T11:25:48.444Z,6.90
2018-10-12T11:29:09.535Z,5.93
2018-10-12T11:30:47.441Z,6.10
2018-10-12T11:32:25.904Z,6.03
2018-10-12T11:34:03.066Z,6.13
2018-10-12T11:35:43.224Z,6.40
2018-10-12T11:37:22.426Z,6.67
2018-10-12T11:39:00.405Z,6.37
2018-10-12T11:40:38.050Z,5.90
2018-10-12T11:42:14.001Z,5.63
2018-10-12T11:43:52.572Z,5.83
2018-10-12T11:45:33.622Z,6.20
2018-10-12T11:47:11.948Z,5.53
2018-10-12T11:48:48.159Z,6.30
2018-10-12T11:50:24.762Z,5.47
2018-10-12T11:52:05.868Z,6.17
2018-10-12T11:53:47.228Z,5.90
2018-10-12T11:55:27.187Z,5.53
2018-10-12T11:57:08.982Z,6.67
2018-10-12T12:00:32.675Z,5.27
2018-10-12T12:02:11.719Z,5.77
2018-10-12T12:03:54.653Z,5.73
2018-10-12T12:05:30.675Z,5.47
2018-10-12T12:07:08.144Z,8.40
2018-10-12T12:08:45.792Z,6.57
2018-10-12T12:10:25.642Z,6.00
2018-10-12T12:12:07.502Z,5.50
2018-10-12T12:13:49.392Z,5.30
2018-10-12T12:15:25.093Z,5.50
2018-10-12T12:17:05.325Z,5.30
2018-10-12T12:18:43.507Z,5.43
2018-10-12T12:20:19.480Z,5.23
2018-10-12T12:21:56.787Z,5.77
2018-10-12T12:23:56.455Z,5.50
2018-10-12T12:25:33.089Z,5.23
2018-10-12T12:27:13.573Z,5.97
2018-10-12T12:28:51.727Z,5.73
2018-10-12T12:30:30.139Z,5.17
2018-10-12T12:32:07.688Z,5.23
2018-10-12T12:33:48.305Z,6.33
2018-10-12T12:35:25.798Z,5.10
2018-10-12T12:37:01.928Z,7.63
2018-10-12T12:38:43.510Z,5.60
2018-10-12T12:40:23.484Z,5.60
2018-10-12T12:42:04.600Z,5.60
2018-10-12T12:43:42.832Z,5.90
2018-10-12T12:45:21.128Z,5.70
2018-10-12T12:46:57.679Z,7.43
2018-10-12T12:48:40.366Z,6.20
2018-10-12T12:50:16.934Z,5.83
2018-10-12T12:51:59.705Z,5.90
2018-10-12T12:53:35.454Z,5.40
2018-10-12T12:55:12.061Z,5.53
2018-10-12T12:56:48.136Z,5.63
2018-10-12T12:58:33.475Z,5.93
2018-10-12T13:00:25.814Z,5.30
2018-10-12T13:02:03.864Z,5.43
2018-10-12T13:03:42.363Z,5.67
2018-10-12T13:05:18.645Z,5.57
2018-10-12T13:06:54.296Z,6.13
2018-10-12T13:08:29.928Z,5.80
2018-10-12T13:10:08.600Z,6.60
2018-10-12T13:11:44.176Z,6.63
2018-10-12T13:13:20.820Z,6.10
2018-10-12T13:14:59.909Z,6.53
2018-10-12T13:16:40.929Z,5.57
2018-10-12T13:18:17.658Z,6.67
2018-10-12T13:20:00.038Z,5.53
2018-10-12T13:21:38.474Z,5.63
2018-10-12T13:23:15.988Z,5.90
2018-10-12T13:24:51.831Z,6.10
2018-10-12T13:26:29.197Z,5.97
2018-10-12T13:28:05.464Z,7.13
2018-10-12T13:29:42.865Z,6.60
2018-10-12T13:31:20.684Z,7.23
2018-10-12T13:32:57.376Z,6.50
2018-10-12T13:34:41.943Z,7.27
2018-10-12T13:36:20.603Z,6.13
2018-10-12T13:37:57.667Z,5.83
2018-10-12T13:39:37.548Z,7.23
2018-10-12T13:41:15.322Z,5.93
2018-10-12T13:42:55.520Z,6.37
2018-10-12T13:44:33.045Z,5.60
2018-10-12T13:46:10.590Z,5.70
2018-10-12T13:47:46.737Z,5.93
2018-10-12T13:49:25.508Z,5.63
2018-10-12T13:53:08.541Z,7.07
2018-10-12T13:54:47.252Z,6.60
2018-10-12T13:56:24.926Z,7.50
2018-10-12T13:58:02.653Z,6.93
2018-10-12T14:01:45.586Z,6.83
2018-10-12T14:03:22.227Z,5.93
2018-10-12T14:04:59.248Z,5.70
2018-10-12T14:06:37.274Z,6.77
2018-10-12T14:08:14.845Z,5.20
2018-10-12T14:09:50.690Z,5.20
2018-10-12T14:11:26.737Z,5.60
2018-10-12T14:13:09.177Z,6.63
2018-10-12T14:14:46.713Z,5.83
2018-10-12T14:16:23.737Z,5.77
2018-10-12T14:18:02.944Z,5.80
2018-10-12T14:19:40.614Z,5.20
2018-10-12T14:21:18.901Z,5.60
2018-10-12T14:22:59.683Z,5.30
2018-10-12T14:24:38.300Z,5.37
2018-10-12T14:26:16.509Z,6.30
2018-10-12T14:27:54.871Z,5.87
2018-10-12T14:29:30.537Z,6.17
2018-10-12T14:31:06.204Z,5.80
2018-10-12T14:32:43.396Z,6.17
2018-10-12T14:34:22.296Z,7.03
2018-10-12T14:35:58.910Z,5.83
2018-10-12T14:37:37.154Z,5.50
2018-10-12T14:39:13.741Z,7.83
2018-10-12T14:40:51.504Z,5.90
2018-10-12T14:42:32.713Z,5.83
2018-10-12T14:44:11.260Z,5.80
2018-10-12T14:45:49.303Z,5.13
2018-10-12T14:47:28.880Z,5.00
2018-10-12T14:49:08.751Z,5.97
2018-10-12T14:50:46.875Z,4.90
2018-10-12T14:52:29.187Z,6.00
2018-10-12T14:54:05.200Z,5.33
2018-10-12T14:55:40.822Z,5.10
2018-10-12T14:57:18.090Z,5.20
2018-10-12T14:58:55.229Z,5.57
2018-10-12T15:00:33.693Z,6.00
2018-10-12T15:02:13.512Z,5.60
2018-10-12T15:03:49.881Z,7.33
2018-10-12T15:05:26.775Z,7.00
2018-10-12T15:07:02.903Z,6.70
2018-10-12T15:08:40.957Z,5.00
2018-10-12T15:10:17.493Z,6.57
2018-10-12T15:11:53.143Z,5.00
2018-10-12T15:15:25.557Z,5.67
2018-10-12T15:17:01.248Z,5.43
2018-10-12T15:18:36.919Z,8.80
2018-10-12T15:20:13.477Z,5.80
2018-10-12T15:21:53.764Z,5.30
2018-10-12T15:23:32.725Z,4.90
2018-10-12T15:25:09.561Z,5.73
2018-10-12T15:26:46.210Z,5.90
2018-10-12T15:28:22.309Z,4.90
2018-10-12T15:30:02.762Z,5.80
2018-10-12T15:31:38.557Z,5.57
2018-10-12T15:33:16.255Z,5.17
2018-10-12T15:34:55.838Z,5.80
2018-10-12T15:36:33.377Z,5.50
2018-10-12T15:38:10.587Z,5.30
2018-10-12T15:39:48.670Z,6.07
2018-10-12T15:41:25.838Z,5.60
2018-10-12T15:43:03.460Z,4.80
2018-10-12T15:44:39.633Z,4.87
2018-10-12T15:46:15.756Z,5.10
2018-10-12T15:47:53.348Z,4.80
2018-10-12T15:49:30.925Z,5.50
2018-10-12T15:51:12.417Z,5.07
2018-10-12T15:52:50.599Z,5.50
2018-10-12T15:54:29.577Z,5.70
2018-10-12T15:56:10.927Z,6.00
2018-10-12T15:57:47.443Z,5.07
2018-10-12T15:59:23.816Z,6.80
2018-10-12T16:01:01.361Z,15.37
2018-10-12T16:02:37.301Z,28.13
2018-10-12T16:04:14.056Z,12.80
2018-10-12T16:05:50.409Z,11.00
2018-10-12T16:07:26.848Z,8.30
2018-10-12T16:09:02.785Z,6.03
2018-10-12T16:10:40.861Z,6.43
2018-10-12T16:12:17.039Z,5.13
2018-10-12T16:13:52.780Z,4.80
2018-10-12T16:15:29.120Z,6.17
2018-10-12T16:17:05.273Z,4.57
2018-10-12T16:18:41.004Z,6.60
2018-10-12T16:20:17.022Z,4.70
2018-10-12T16:21:54.078Z,5.43
2018-10-12T16:23:30.857Z,4.97
2018-10-12T16:25:25.318Z,4.73
2018-10-12T16:27:02.820Z,5.20
2018-10-12T16:28:40.521Z,5.40
2018-10-12T16:30:18.177Z,7.27
2018-10-12T16:31:54.309Z,11.70
2018-10-12T16:33:31.525Z,11.77
2018-10-12T16:35:09.752Z,9.33
2018-10-12T16:38:53.092Z,11.60
2018-10-12T16:40:29.953Z,14.60
2018-10-12T16:42:10.602Z,14.17
2018-10-12T16:43:51.008Z,8.37
2018-10-12T16:45:27.252Z,7.57
2018-10-12T16:47:05.149Z,6.47
2018-10-12T16:48:41.550Z,5.80
2018-10-12T16:50:17.583Z,5.77
2018-10-12T16:51:55.432Z,5.90
2018-10-12T16:53:30.973Z,5.70
2018-10-12T16:55:08.362Z,5.07
2018-10-12T16:56:45.068Z,5.70
2018-10-12T16:58:22.201Z,6.17
2018-10-12T16:59:58.329Z,5.33
2018-10-12T17:01:35.913Z,6.63
2018-10-12T17:03:13.328Z,5.70
2018-10-12T17:04:53.860Z,6.40
2018-10-12T17:06:30.804Z,6.23
2018-10-12T17:08:08.408Z,5.83
2018-10-12T17:09:44.830Z,6.00
2018-10-12T17:11:21.444Z,6.05
2018-10-12T17:12:57.296Z,6.27
2018-10-12T17:14:34.950Z,7.57
2018-10-12T17:16:11.222Z,7.53
2018-10-12T17:17:49.019Z,6.20
2018-10-12T17:19:27.943Z,6.33
2018-10-12T17:21:06.871Z,6.17
2018-10-12T17:22:44.868Z,7.00
2018-10-12T17:24:21.053Z,5.43
2018-10-12T17:25:58.510Z,6.23
2018-10-12T17:27:34.186Z,5.63
2018-10-12T17:29:11.976Z,7.50
2018-10-12T17:30:48.731Z,7.23
2018-10-12T17:32:25.993Z,6.37
2018-10-12T17:34:05.944Z,8.17
2018-10-12T17:35:46.092Z,5.70
2018-10-12T17:37:22.488Z,6.27
2018-10-12T17:39:00.625Z,6.03
2018-10-12T17:40:37.853Z,5.63
2018-10-12T17:42:16.844Z,5.93
2018-10-12T17:43:54.448Z,6.00
2018-10-12T17:45:34.158Z,7.73
2018-10-12T17:47:13.220Z,5.87
2018-10-12T17:48:49.972Z,6.20
2018-10-12T17:50:25.639Z,6.10
2018-10-12T17:52:10.845Z,5.67
2018-10-12T17:53:48.989Z,5.67
2018-10-12T17:55:25.159Z,6.77
2018-10-12T17:57:02.269Z,7.10
2018-10-12T17:58:38.420Z,6.30
2018-10-12T18:00:14.159Z,8.20
2018-10-12T18:01:51.171Z,10.47
2018-10-12T18:03:26.913Z,7.77
2018-10-12T18:05:04.050Z,6.73
2018-10-12T18:06:41.170Z,6.80
2018-10-12T18:08:18.565Z,7.03
2018-10-12T18:09:56.127Z,6.17
2018-10-12T18:11:39.259Z,6.43
2018-10-12T18:13:24.178Z,6.50
2018-10-12T18:17:14.043Z,7.00
2018-10-12T18:18:51.034Z,6.90
2018-10-12T18:20:29.192Z,7.33
2018-10-12T18:24:04.329Z,9.43
2018-10-12T18:25:43.451Z,9.63
2018-10-12T18:27:28.146Z,8.33
2018-10-12T18:29:04.415Z,12.20
2018-10-12T18:30:41.903Z,12.93
2018-10-12T18:32:21.918Z,9.70
2018-10-12T18:34:02.428Z,8.33
2018-10-12T18:37:26.315Z,6.80
2018-10-12T18:39:03.365Z,7.63
2018-10-12T18:40:44.115Z,7.27
2018-10-12T18:42:22.096Z,9.63
2018-10-12T18:43:59.567Z,7.30
2018-10-12T18:45:36.008Z,7.50
2018-10-12T18:47:15.761Z,7.70
2018-10-12T18:48:51.909Z,8.20
2018-10-12T18:50:27.878Z,7.70
2018-10-12T18:53:50.768Z,7.87
2018-10-12T18:55:29.816Z,7.30
2018-10-12T18:57:09.093Z,6.80
2018-10-12T18:59:04.739Z,7.33
2018-10-12T19:00:42.115Z,6.73
2018-10-12T19:02:21.214Z,6.33
2018-10-12T19:03:59.454Z,6.77
2018-10-12T19:05:43.713Z,7.30
2018-10-12T19:07:24.006Z,7.07
2018-10-12T19:09:00.860Z,6.50
2018-10-12T19:10:38.715Z,6.63
2018-10-12T19:12:15.737Z,7.97
2018-10-12T19:13:59.046Z,9.83
2018-10-12T19:15:36.313Z,8.37
2018-10-12T19:17:14.610Z,9.97
2018-10-12T19:18:51.528Z,7.33
2018-10-12T19:20:27.745Z,7.40
2018-10-12T19:22:07.842Z,6.90
2018-10-12T19:23:45.352Z,7.20
2018-10-12T19:25:21.017Z,7.13
2018-10-12T19:26:57.953Z,7.23
2018-10-12T19:28:34.652Z,7.77
2018-10-12T19:30:11.259Z,7.20
2018-10-12T19:31:47.144Z,8.00
2018-10-12T19:33:28.095Z,9.37
2018-10-12T19:35:07.107Z,9.03
2018-10-12T19:36:47.131Z,9.83
2018-10-12T19:38:26.771Z,8.23
2018-10-12T19:40:03.421Z,9.23
2018-10-12T19:41:40.524Z,10.00
2018-10-12T19:43:19.455Z,9.50
2018-10-12T19:44:56.852Z,9.07
2018-10-12T19:46:33.560Z,9.67
2018-10-12T19:48:12.981Z,8.47
2018-10-12T19:49:49.658Z,8.80
2018-10-12T19:51:30.002Z,8.40
2018-10-12T19:53:05.970Z,10.20
2018-10-12T19:54:44.200Z,8.20
2018-10-12T19:56:26.116Z,8.83
2018-10-12T19:58:02.526Z,9.27
2018-10-12T19:59:38.847Z,9.33
2018-10-12T20:01:20.950Z,9.77
2018-10-12T20:02:56.913Z,10.10
2018-10-12T20:04:33.108Z,10.67
2018-10-12T20:06:10.096Z,9.13
2018-10-12T20:07:49.081Z,10.67
2018-10-12T20:09:30.642Z,8.97
2018-10-12T20:11:07.835Z,8.60
2018-10-12T20:12:44.299Z,9.50
2018-10-12T20:14:21.385Z,9.50
2018-10-12T20:16:01.548Z,9.80
2018-10-12T20:17:37.808Z,9.23
2018-10-12T20:19:13.581Z,9.97
2018-10-12T20:20:50.235Z,9.60
2018-10-12T20:22:30.369Z,9.13
2018-10-12T20:24:09.152Z,9.03
2018-10-12T20:25:44.699Z,9.27
2018-10-12T20:27:22.072Z,9.60
2018-10-12T20:28:58.705Z,9.70
2018-10-12T20:30:36.462Z,9.33
2018-10-12T20:32:13.483Z,10.27
2018-10-12T20:33:50.158Z,10.17
2018-10-12T20:35:27.724Z,9.60
2018-10-12T20:37:06.676Z,9.13
2018-10-12T20:38:44.173Z,9.50
2018-10-12T20:40:36.021Z,10.13
2018-10-12T20:42:14.180Z,10.00
2018-10-12T20:43:49.835Z,9.23
2018-10-12T20:45:25.494Z,10.73
2018-10-12T20:47:02.703Z,10.03
2018-10-12T20:48:42.850Z,9.10
2018-10-12T20:50:20.636Z,10.13
2018-10-12T20:51:57.192Z,9.93
2018-10-12T20:53:33.801Z,10.00
2018-10-12T20:55:10.062Z,10.23
2018-10-12T20:56:46.237Z,10.90
2018-10-12T20:58:23.450Z,10.63
2018-10-12T21:00:00.871Z,11.00
2018-10-12T21:01:37.822Z,10.60
2018-10-12T21:03:17.497Z,10.23
2018-10-12T21:04:53.244Z,9.47
2018-10-12T21:06:29.168Z,8.90
2018-10-12T21:08:07.507Z,9.13
2018-10-12T21:09:45.968Z,10.10
2018-10-12T21:11:23.317Z,9.33
2018-10-12T21:12:59.839Z,10.27
2018-10-12T21:14:38.090Z,11.43
2018-10-12T21:16:14.967Z,10.27
2018-10-12T21:17:55.586Z,10.03
2018-10-12T21:19:32.925Z,9.80
2018-10-12T21:21:10.147Z,10.00
2018-10-12T21:22:45.936Z,10.03
2018-10-12T21:24:26.139Z,8.90
2018-10-12T21:26:04.943Z,8.93
2018-10-12T21:27:42.368Z,8.97
2018-10-12T21:29:22.053Z,8.77
2018-10-12T21:30:58.965Z,9.20
2018-10-12T21:32:38.123Z,9.13
2018-10-12T21:34:20.566Z,10.63
2018-10-12T21:36:12.528Z,10.97
2018-10-12T21:37:50.557Z,9.60
2018-10-12T21:39:26.964Z,10.67
2018-10-12T21:41:07.039Z,10.90